Time;durP1;ratioP1;P1;durP2;ratioP2;P2;SDS_P1;SDS_P2;PMS_P1;PMS_P2;Temp;Humidity;BMP_temperature;BMP_pressure;BME280_temperature;BME280_humidity;BME280_pressure;Samples;Min_cycle;Max_cycle;Signal;HPM_P1;HPM_P2
2020/12/21 00:00:52;;;;;;;26.20;8.80;;;5.90;99.90;;;;;;4177913;28;20071;-74
2020/12/21 00:02:53;;;;;;;25.30;8.85;;;5.80;99.90;;;;;;4177780;28;20388;-76
2020/12/21 00:04:53;;;;;;;21.73;8.55;;;5.80;99.90;;;;;;4171165;28;20029;-75
2020/12/21 00:06:56;;;;;;;31.92;9.35;;;5.70;99.90;;;;;;4177633;28;20037;-74
2020/12/21 00:08:56;;;;;;;24.67;8.38;;;5.60;99.90;;;;;;4179468;28;20017;-75
2020/12/21 00:10:57;;;;;;;22.60;9.13;;;5.60;99.90;;;;;;4164426;28;20057;-76
2020/12/21 00:12:57;;;;;;;24.75;9.35;;;5.60;99.90;;;;;;4180933;28;20528;-73
2020/12/21 00:14:59;;;;;;;24.98;9.35;;;5.50;99.90;;;;;;4162603;28;20469;-73
2020/12/21 00:17:00;;;;;;;19.58;9.50;;;5.50;99.90;;;;;;4162676;28;20385;-74
2020/12/21 00:19:00;;;;;;;25.88;9.07;;;5.50;99.90;;;;;;4180506;28;20028;-74
2020/12/21 00:21:01;;;;;;;26.33;9.65;;;5.50;99.90;;;;;;4180794;28;20024;-75
2020/12/21 00:23:01;;;;;;;24.42;9.70;;;5.50;99.90;;;;;;4179795;28;20037;-76
2020/12/21 00:25:02;;;;;;;30.05;10.48;;;5.50;99.90;;;;;;4180336;28;20040;-76
2020/12/21 00:27:02;;;;;;;23.55;9.77;;;5.60;99.90;;;;;;4162462;28;20026;-75
2020/12/21 00:29:04;;;;;;;29.13;10.45;;;5.50;99.90;;;;;;4181806;28;20380;-75
2020/12/21 00:31:05;;;;;;;27.25;10.15;;;5.50;99.90;;;;;;4164022;28;20477;-75
2020/12/21 00:33:05;;;;;;;24.98;10.02;;;5.50;99.90;;;;;;4181611;28;20024;-75
2020/12/21 00:35:06;;;;;;;22.85;9.85;;;5.40;99.90;;;;;;4182011;28;20025;-76
2020/12/21 00:37:07;;;;;;;25.40;10.90;;;5.40;99.90;;;;;;4181623;28;20028;-74
2020/12/21 00:39:08;;;;;;;24.20;10.48;;;5.30;99.90;;;;;;4179951;28;20018;-75
2020/12/21 00:41:17;;;;;;;20.80;10.18;;;5.30;99.90;;;;;;4163968;28;20467;-75
2020/12/21 00:43:17;;;;;;;27.23;9.93;;;5.30;99.90;;;;;;4182092;28;20098;-75
2020/12/21 00:45:18;;;;;;;22.90;9.95;;;5.30;99.90;;;;;;4164109;28;20037;-74
2020/12/21 00:47:19;;;;;;;31.98;11.38;;;5.30;99.90;;;;;;4181309;28;20037;-75
2020/12/21 00:49:19;;;;;;;26.58;11.63;;;5.30;99.90;;;;;;4163727;28;20030;-75
2020/12/21 00:51:20;;;;;;;25.15;12.02;;;5.20;99.90;;;;;;4181918;28;20025;-75
2020/12/21 00:53:21;;;;;;;26.83;12.73;;;5.10;99.90;;;;;;4163979;28;20033;-75
2020/12/21 00:55:21;;;;;;;29.23;13.52;;;5.00;99.90;;;;;;4181591;28;20040;-75
2020/12/21 00:57:22;;;;;;;31.83;12.00;;;5.00;99.90;;;;;;4181223;28;20460;-75
2020/12/21 00:59:23;;;;;;;34.67;11.80;;;5.00;99.90;;;;;;4163871;28;20388;-74
2020/12/21 01:01:26;;;;;;;25.95;11.85;;;5.00;99.90;;;;;;4181355;28;20055;-75
2020/12/21 01:03:26;;;;;;;30.67;11.23;;;5.00;99.90;;;;;;4180082;28;20030;-75
2020/12/21 01:05:27;;;;;;;26.25;10.43;;;4.90;99.90;;;;;;4160654;28;20034;-74
2020/12/21 01:07:27;;;;;;;25.30;11.80;;;4.80;99.90;;;;;;4179575;28;20511;-74
2020/12/21 01:09:28;;;;;;;29.77;11.63;;;4.80;99.90;;;;;;4179775;28;20388;-75
2020/12/21 01:11:29;;;;;;;31.48;11.27;;;4.70;99.90;;;;;;4179385;28;20036;-75
2020/12/21 01:13:29;;;;;;;31.13;11.65;;;4.60;99.90;;;;;;4179895;28;20028;-75
2020/12/21 01:15:30;;;;;;;34.40;13.55;;;4.60;99.90;;;;;;4179680;28;20032;-75
2020/12/21 01:17:33;;;;;;;31.65;12.00;;;4.60;99.90;;;;;;4179952;28;20044;-75
2020/12/21 01:19:34;;;;;;;;;;;4.40;99.90;;;;;;4180971;28;20376;-75
2020/12/21 01:21:35;;;;;;;31.35;11.38;;;4.30;99.90;;;;;;4179956;28;20160;-74
2020/12/21 01:23:35;;;;;;;26.45;12.63;;;4.20;99.90;;;;;;4179641;28;20029;-74
2020/12/21 01:25:36;;;;;;;35.80;13.88;;;4.20;99.90;;;;;;4179410;28;20068;-75
2020/12/21 01:27:37;;;;;;;29.50;12.10;;;4.10;99.90;;;;;;4161977;28;20036;-74
2020/12/21 01:29:37;;;;;;;35.67;12.52;;;4.00;99.90;;;;;;4179711;28;20037;-75
2020/12/21 01:31:38;;;;;;;27.00;12.05;;;4.00;99.90;;;;;;4180045;28;20033;-74
2020/12/21 01:33:39;;;;;;;31.20;12.55;;;4.00;99.90;;;;;;4179829;28;20458;-74
2020/12/21 01:35:39;;;;;;;31.45;12.98;;;4.10;99.90;;;;;;4179757;28;20052;-74
2020/12/21 01:37:40;;;;;;;33.55;13.00;;;4.10;99.90;;;;;;4180940;28;20077;-74
2020/12/21 01:39:48;;;;;;;39.78;14.27;;;4.10;99.90;;;;;;4181119;28;20124;-74
2020/12/21 01:41:48;;;;;;;39.65;13.63;;;4.10;99.90;;;;;;4174601;28;20025;-74
2020/12/21 01:43:54;;;;;;;26.42;11.32;;;4.10;99.90;;;;;;4178632;28;20502;-74
2020/12/21 01:45:55;;;;;;;35.97;12.18;;;4.10;99.90;;;;;;4178905;28;20113;-74
2020/12/21 01:47:56;;;;;;;38.47;13.25;;;4.10;99.90;;;;;;4161236;28;20496;-74
2020/12/21 01:49:57;;;;;;;28.55;13.75;;;4.10;99.90;;;;;;4178995;28;20040;-74
2020/12/21 01:51:57;;;;;;;36.85;14.65;;;4.10;99.90;;;;;;4178809;28;20108;-75
2020/12/21 01:53:59;;;;;;;32.20;12.82;;;4.20;99.90;;;;;;4161118;28;20093;-74
2020/12/21 01:56:03;;;;;;;35.17;13.10;;;4.20;99.90;;;;;;4179533;28;20098;-74
2020/12/21 01:58:04;;;;;;;38.78;12.77;;;4.30;99.90;;;;;;4180484;28;20029;-74
2020/12/21 02:00:06;;;;;;;35.25;14.00;;;4.20;99.90;;;;;;4180945;28;20044;-74
2020/12/21 02:02:08;;;;;;;35.33;14.10;;;4.30;99.90;;;;;;4180235;28;20030;-75
2020/12/21 02:04:08;;;;;;;32.63;13.25;;;4.20;99.90;;;;;;4180367;28;20025;-75
2020/12/21 02:06:11;;;;;;;36.55;13.82;;;4.20;99.90;;;;;;4180248;28;20078;-74
2020/12/21 02:08:11;;;;;;;36.78;13.45;;;4.20;99.90;;;;;;4162544;28;20041;-75
2020/12/21 02:10:13;;;;;;;36.30;15.48;;;4.10;99.90;;;;;;4180550;28;20033;-74
2020/12/21 02:12:13;;;;;;;39.65;13.88;;;4.00;99.90;;;;;;4180191;28;20032;-74
2020/12/21 02:14:14;;;;;;;32.58;14.75;;;4.00;99.90;;;;;;4180258;28;20087;-74
2020/12/21 02:16:15;;;;;;;42.70;14.95;;;3.90;99.90;;;;;;4162855;28;20493;-75
2020/12/21 02:18:15;;;;;;;38.63;15.13;;;3.90;99.90;;;;;;4179808;28;20029;-74
2020/12/21 02:20:16;;;;;;;34.50;15.45;;;3.80;99.90;;;;;;4180214;28;20029;-75
2020/12/21 02:22:17;;;;;;;35.45;15.07;;;3.80;99.90;;;;;;4162132;28;20069;-74
2020/12/21 02:24:18;;;;;;;35.33;13.77;;;3.80;99.90;;;;;;4162713;28;20057;-75
2020/12/21 02:26:18;;;;;;;38.45;14.75;;;3.80;99.90;;;;;;4180020;28;20021;-75
2020/12/21 02:28:19;;;;;;;35.78;14.27;;;3.70;99.90;;;;;;4179884;28;20029;-75
2020/12/21 02:30:19;;;;;;;34.17;14.95;;;3.70;99.90;;;;;;4179805;28;20025;-74
2020/12/21 02:32:20;;;;;;;34.80;14.60;;;3.70;99.90;;;;;;4161567;28;20037;-74
2020/12/21 02:34:21;;;;;;;39.35;16.40;;;3.70;99.90;;;;;;4179899;28;20383;-75
2020/12/21 02:36:21;;;;;;;36.50;14.75;;;3.70;99.90;;;;;;4180166;28;20036;-75
2020/12/21 02:38:22;;;;;;;33.35;13.63;;;3.60;99.90;;;;;;4180158;28;20491;-74
2020/12/21 02:40:23;;;;;;;33.83;16.42;;;3.60;99.90;;;;;;4179415;28;20025;-74
2020/12/21 02:42:23;;;;;;;33.92;14.65;;;3.70;99.90;;;;;;4179532;28;20801;-75
2020/12/21 02:44:24;;;;;;;36.85;15.55;;;3.70;99.90;;;;;;4179914;28;20021;-74
2020/12/21 02:46:24;;;;;;;42.00;15.68;;;3.70;99.90;;;;;;4178091;28;20025;-74
2020/12/21 02:48:25;;;;;;;36.25;14.75;;;3.60;99.90;;;;;;4162192;28;20496;-74
2020/12/21 02:50:26;;;;;;;32.65;14.48;;;3.50;99.90;;;;;;4179547;28;20052;-74
2020/12/21 02:52:30;;;;;;;35.88;13.43;;;3.50;99.90;;;;;;4179923;28;20092;-74
2020/12/21 02:54:30;;;;;;;39.00;13.38;;;3.40;99.90;;;;;;4162102;28;20034;-74
2020/12/21 02:56:31;;;;;;;30.10;13.05;;;3.40;99.90;;;;;;4179495;28;20044;-74
2020/12/21 02:58:32;;;;;;;35.72;14.38;;;3.30;99.90;;;;;;4162022;28;20132;-75
2020/12/21 03:00:36;;;;;;;31.85;13.52;;;3.30;99.90;;;;;;4179664;28;20348;-77
2020/12/21 03:02:37;;;;;;;35.42;13.65;;;3.40;99.90;;;;;;4161986;28;20025;-74
2020/12/21 03:04:37;;;;;;;38.47;14.23;;;3.40;99.90;;;;;;4178832;28;20052;-74
2020/12/21 03:06:38;;;;;;;37.30;14.05;;;3.40;99.90;;;;;;4178770;28;20091;-75
2020/12/21 03:08:38;;;;;;;39.13;14.30;;;3.30;99.90;;;;;;4179527;28;20107;-74
2020/12/21 03:10:39;;;;;;;29.33;14.05;;;3.30;99.90;;;;;;4179531;28;20029;-75
2020/12/21 03:12:39;;;;;;;35.58;14.10;;;3.30;99.90;;;;;;4161808;28;20067;-75
2020/12/21 03:14:40;;;;;;;37.10;14.88;;;3.20;99.90;;;;;;4179266;28;20027;-74
2020/12/21 03:16:41;;;;;;;29.75;15.50;;;3.20;99.90;;;;;;4161788;28;20108;-74
2020/12/21 03:18:41;;;;;;;36.75;13.38;;;3.20;99.90;;;;;;4161780;28;20029;-74
2020/12/21 03:20:42;;;;;;;35.25;14.18;;;3.10;99.90;;;;;;4179085;28;20029;-74
2020/12/21 03:22:42;;;;;;;28.35;13.55;;;2.90;99.90;;;;;;4145362;28;20628;-74
2020/12/21 03:24:43;;;;;;;33.92;12.52;;;3.00;99.90;;;;;;4170394;28;20025;-74
2020/12/21 03:26:43;;;;;;;33.92;12.15;;;3.00;99.90;;;;;;4161374;28;20064;-74
2020/12/21 03:28:44;;;;;;;30.10;13.13;;;3.00;99.90;;;;;;4161903;28;20100;-74
2020/12/21 03:30:45;;;;;;;41.63;14.18;;;3.10;99.90;;;;;;4179144;28;20163;-74
2020/12/21 03:32:45;;;;;;;24.98;11.25;;;3.00;99.90;;;;;;4179259;28;20383;-74
2020/12/21 03:34:46;;;;;;;21.73;11.07;;;3.00;99.90;;;;;;4179202;28;20029;-74
2020/12/21 03:36:46;;;;;;;32.40;11.75;;;3.20;99.90;;;;;;4179232;28;20047;-74
2020/12/21 03:38:47;;;;;;;31.77;11.35;;;3.30;99.90;;;;;;4163386;28;20029;-74
2020/12/21 03:40:48;;;;;;;26.20;11.70;;;3.40;99.90;;;;;;4176129;28;20420;-74
2020/12/21 03:42:48;;;;;;;24.85;10.15;;;3.50;99.90;;;;;;4161186;28;20034;-74
2020/12/21 03:44:49;;;;;;;30.95;11.38;;;3.50;99.90;;;;;;4179053;28;20052;-74
2020/12/21 03:46:49;;;;;;;30.48;12.55;;;3.60;99.90;;;;;;4178820;28;20484;-74
2020/12/21 03:48:50;;;;;;;24.80;11.38;;;3.70;99.90;;;;;;4179221;28;20490;-74
2020/12/21 03:50:51;;;;;;;23.85;11.57;;;3.80;99.90;;;;;;4161109;28;20025;-74
2020/12/21 03:52:51;;;;;;;35.38;11.65;;;3.80;99.90;;;;;;4178743;28;20032;-74
2020/12/21 03:54:52;;;;;;;29.27;11.40;;;3.90;99.90;;;;;;4179075;28;20451;-74
2020/12/21 03:56:53;;;;;;;22.60;10.23;;;4.00;99.90;;;;;;4179262;28;20326;-75
2020/12/21 03:58:53;;;;;;;37.90;11.02;;;4.10;99.90;;;;;;4161179;28;20354;-75
2020/12/21 04:00:54;;;;;;;28.25;10.45;;;4.20;99.90;;;;;;4179091;28;20558;-73
2020/12/21 04:02:55;;;;;;;23.92;11.00;;;4.20;99.90;;;;;;4161456;28;20125;-75
2020/12/21 04:04:56;;;;;;;24.85;11.40;;;4.20;99.90;;;;;;4177298;28;20112;-75
2020/12/21 04:06:56;;;;;;;28.77;11.35;;;4.40;99.90;;;;;;4178875;28;20084;-73
2020/12/21 04:08:57;;;;;;;25.25;10.85;;;4.40;99.90;;;;;;4161418;28;20032;-74
2020/12/21 04:11:00;;;;;;;20.77;10.57;;;4.50;99.90;;;;;;4161470;28;20496;-74
2020/12/21 04:13:00;;;;;;;25.15;10.68;;;4.50;99.90;;;;;;4161227;28;20026;-74
2020/12/21 04:15:03;;;;;;;29.98;11.40;;;4.40;99.90;;;;;;4178808;28;20538;-76
2020/12/21 04:17:03;;;;;;;27.35;11.35;;;4.40;99.90;;;;;;4160307;28;21987;-74
2020/12/21 04:19:04;;;;;;;30.65;11.15;;;4.30;99.90;;;;;;4160820;28;20034;-74
2020/12/21 04:21:12;;;;;;;33.95;11.88;;;4.30;99.90;;;;;;4161179;28;20025;-74
2020/12/21 04:23:12;;;;;;;29.15;10.32;;;4.30;99.90;;;;;;4173884;28;20522;-74
2020/12/21 04:25:13;;;;;;;29.38;10.82;;;4.20;99.90;;;;;;4161098;28;20026;-74
2020/12/21 04:27:14;;;;;;;32.65;10.73;;;4.20;99.90;;;;;;4160817;28;20428;-74
2020/12/21 04:29:15;;;;;;;29.92;11.48;;;4.10;99.90;;;;;;4179008;28;20024;-74
2020/12/21 04:31:16;;;;;;;29.45;11.25;;;4.10;99.90;;;;;;4160864;28;20030;-73
2020/12/21 04:33:17;;;;;;;27.73;10.88;;;4.00;99.90;;;;;;4161134;28;20018;-74
2020/12/21 04:35:17;;;;;;;37.05;12.90;;;4.00;99.90;;;;;;4178431;28;20357;-74
2020/12/21 04:37:19;;;;;;;29.75;11.25;;;3.90;99.90;;;;;;4178655;28;20122;-73
2020/12/21 04:39:23;;;;;;;32.97;11.55;;;3.90;99.90;;;;;;4179016;28;20082;-74
2020/12/21 04:41:24;;;;;;;26.88;11.70;;;4.00;99.90;;;;;;4175557;28;20029;-74
2020/12/21 04:43:25;;;;;;;31.52;12.60;;;3.90;99.90;;;;;;4160784;28;20483;-76
2020/12/21 04:45:28;;;;;;;27.85;13.13;;;3.90;99.90;;;;;;4178644;28;20388;-74
2020/12/21 04:47:31;;;;;;;25.45;13.35;;;4.00;99.90;;;;;;4178417;28;20037;-75
2020/12/21 04:49:33;;;;;;;34.95;13.60;;;4.10;99.90;;;;;;4178432;28;20383;-75
2020/12/21 04:51:34;;;;;;;32.38;13.43;;;4.00;99.90;;;;;;4178352;28;20029;-75
2020/12/21 04:53:38;;;;;;;36.05;13.35;;;3.90;99.90;;;;;;4178367;28;20546;-75
2020/12/21 04:55:40;;;;;;;33.05;13.52;;;3.90;99.90;;;;;;4181018;28;20481;-75
2020/12/21 04:57:40;;;;;;;40.47;14.50;;;3.80;99.90;;;;;;4162981;28;20449;-74
2020/12/21 04:59:41;;;;;;;38.58;14.65;;;3.80;99.90;;;;;;4181458;28;20025;-75
2020/12/21 05:01:42;;;;;;;39.65;13.93;;;3.80;99.90;;;;;;4162001;28;20408;-74
2020/12/21 05:03:49;;;;;;;34.20;13.30;;;3.70;99.90;;;;;;4179817;28;20025;-74
2020/12/21 05:05:50;;;;;;;39.95;14.55;;;3.70;99.90;;;;;;4179099;28;20036;-74
2020/12/21 05:07:50;;;;;;;40.15;13.73;;;3.70;99.90;;;;;;4159331;28;20033;-74
2020/12/21 05:09:51;;;;;;;32.35;15.15;;;3.70;99.90;;;;;;4181091;28;20025;-74
2020/12/21 05:11:54;;;;;;;30.48;13.95;;;3.70;99.90;;;;;;4179473;28;20502;-74
2020/12/21 05:14:07;;;;;;;31.60;12.85;;;3.70;99.90;;;;;;4161831;28;20053;-74
2020/12/21 05:16:08;;;;;;;36.38;13.60;;;3.70;99.90;;;;;;4161681;28;20033;-74
2020/12/21 05:18:10;;;;;;;36.63;14.50;;;3.70;99.90;;;;;;4162367;28;20037;-74
2020/12/21 05:20:10;;;;;;;35.90;14.93;;;3.80;99.90;;;;;;4179653;28;20029;-74
2020/12/21 05:22:15;;;;;;;44.22;15.93;;;3.90;99.90;;;;;;4179193;28;20025;-74
2020/12/21 05:24:21;;;;;;;31.48;13.50;;;3.90;99.90;;;;;;4179755;28;20033;-74
2020/12/21 05:26:30;;;;;;;36.75;12.75;;;4.00;99.90;;;;;;4179042;28;20072;-74
2020/12/21 05:28:33;;;;;;;28.38;13.68;;;4.00;99.90;;;;;;4180243;28;20051;-74
2020/12/21 05:30:34;;;;;;;38.28;12.90;;;4.00;99.90;;;;;;4180999;28;20032;-74
2020/12/21 05:32:34;;;;;;;34.83;13.75;;;4.00;99.90;;;;;;4181041;28;20025;-74
2020/12/21 05:34:35;;;;;;;29.60;13.70;;;4.10;99.90;;;;;;4181123;28;20025;-75
2020/12/21 05:36:35;;;;;;;37.20;12.88;;;4.10;99.90;;;;;;4181125;28;20025;-74
2020/12/21 05:38:38;;;;;;;42.95;13.80;;;4.10;99.90;;;;;;4181092;28;20021;-74
2020/12/21 05:40:38;;;;;;;25.55;11.63;;;4.20;99.90;;;;;;4180180;28;20192;-74
2020/12/21 05:42:41;;;;;;;25.65;11.38;;;4.30;99.90;;;;;;4179529;28;20025;-76
2020/12/21 05:45:03;;;;;;;28.43;12.43;;;4.30;99.90;;;;;;4163324;28;20036;-75
2020/12/21 05:47:04;;;;;;;28.20;11.65;;;4.30;99.90;;;;;;4178732;28;20510;-75
2020/12/21 05:49:05;;;;;;;27.73;11.07;;;4.30;99.90;;;;;;4178872;28;20036;-74
2020/12/21 05:51:07;;;;;;;31.05;11.35;;;4.20;99.90;;;;;;4179210;28;20017;-76
2020/12/21 05:53:08;;;;;;;29.35;11.07;;;4.20;99.90;;;;;;4161867;28;20033;-74
2020/12/21 05:55:11;;;;;;;35.05;10.98;;;4.40;99.90;;;;;;4162728;28;20021;-74
2020/12/21 05:57:12;;;;;;;31.10;10.95;;;4.40;99.90;;;;;;4180556;28;20400;-74
2020/12/21 05:59:16;;;;;;;23.63;10.10;;;4.40;99.90;;;;;;4180589;28;20031;-74
2020/12/21 06:01:18;;;;;;;22.20;9.68;;;4.50;99.90;;;;;;4179690;28;20025;-74
2020/12/21 06:03:26;;;;;;;22.95;10.05;;;4.50;99.90;;;;;;4161780;28;20029;-74
2020/12/21 06:05:30;;;;;;;21.77;10.02;;;4.60;99.90;;;;;;4176688;28;20032;-74
2020/12/21 06:07:32;;;;;;;21.73;9.07;;;4.60;99.90;;;;;;4172529;28;20092;-74
2020/12/21 06:09:35;;;;;;;28.75;11.10;;;4.60;99.90;;;;;;4125768;28;20049;-74
2020/12/21 06:11:39;;;;;;;30.70;9.48;;;4.60;99.90;;;;;;4172197;28;20033;-74
2020/12/21 06:13:44;;;;;;;27.77;9.40;;;4.60;99.90;;;;;;4176603;28;20368;-75
2020/12/21 06:15:45;;;;;;;20.17;9.07;;;4.60;99.90;;;;;;4173498;28;20033;-74
2020/12/21 06:17:46;;;;;;;23.73;9.23;;;4.60;99.90;;;;;;4169994;28;20037;-74
2020/12/21 06:19:47;;;;;;;19.77;8.45;;;4.60;99.90;;;;;;4164140;28;20025;-74
2020/12/21 06:21:54;;;;;;;25.40;9.43;;;4.60;99.90;;;;;;4163722;28;20070;-75
2020/12/21 06:23:55;;;;;;;28.30;9.48;;;4.50;99.90;;;;;;4148201;28;20086;-74
2020/12/21 06:26:09;;;;;;;28.88;9.32;;;4.50;99.90;;;;;;4166419;28;20036;-74
2020/12/21 06:28:12;;;;;;;21.75;9.50;;;4.50;99.90;;;;;;4165483;28;20453;-74
2020/12/21 06:30:16;;;;;;;20.90;8.48;;;4.50;99.90;;;;;;4165324;28;20025;-74
2020/12/21 06:32:16;;;;;;;21.48;8.65;;;4.40;99.90;;;;;;4165852;28;20096;-74
2020/12/21 06:34:30;;;;;;;35.00;9.65;;;4.40;99.90;;;;;;4164236;28;20029;-74
2020/12/21 06:36:32;;;;;;;22.65;8.95;;;4.50;99.90;;;;;;4146341;28;20038;-73
2020/12/21 06:38:43;;;;;;;21.27;8.77;;;4.50;99.90;;;;;;4153071;28;20030;-74
2020/12/21 06:40:43;;;;;;;26.20;8.77;;;4.50;99.90;;;;;;4164761;28;20075;-73
2020/12/21 06:42:44;;;;;;;19.52;8.45;;;4.50;99.90;;;;;;4162041;28;20029;-74
2020/12/21 06:44:44;;;;;;;22.75;9.15;;;4.50;99.90;;;;;;4162363;28;20025;-73
2020/12/21 06:46:45;;;;;;;21.42;9.15;;;4.60;99.90;;;;;;4179744;28;20072;-73
2020/12/21 06:49:00;;;;;;;32.78;9.43;;;4.50;99.90;;;;;;4179907;28;20029;-74
2020/12/21 06:51:11;;;;;;;19.45;8.40;;;4.50;99.90;;;;;;4159376;28;20048;-74
2020/12/21 06:53:12;;;;;;;25.23;8.25;;;4.50;99.90;;;;;;4148995;28;20303;-74
2020/12/21 06:55:12;;;;;;;22.15;8.55;;;4.50;99.90;;;;;;4148023;28;20030;-74
2020/12/21 06:57:13;;;;;;;25.02;9.10;;;4.60;99.90;;;;;;4176461;28;20322;-74
2020/12/21 06:59:18;;;;;;;26.88;8.38;;;4.60;99.90;;;;;;4169815;28;20079;-74
2020/12/21 07:01:22;;;;;;;17.58;8.07;;;4.60;99.90;;;;;;4165574;28;20030;-74
2020/12/21 07:03:22;;;;;;;21.27;9.18;;;4.60;99.90;;;;;;4167590;28;20033;-74
2020/12/21 07:05:23;;;;;;;20.88;8.45;;;4.60;99.90;;;;;;4179588;28;20422;-73
2020/12/21 07:07:23;;;;;;;23.27;8.38;;;4.60;99.90;;;;;;4160528;28;20044;-74
2020/12/21 07:09:26;;;;;;;34.75;10.25;;;4.60;99.90;;;;;;4174626;28;20502;-74
2020/12/21 07:11:27;;;;;;;23.30;8.80;;;4.70;99.90;;;;;;4178903;28;20029;-74
2020/12/21 07:13:31;;;;;;;26.10;10.35;;;4.70;99.90;;;;;;4161758;28;20437;-74
2020/12/21 07:15:31;;;;;;;23.70;8.38;;;4.70;99.90;;;;;;4161099;28;20043;-74
2020/12/21 07:17:33;;;;;;;20.67;8.85;;;4.70;99.90;;;;;;4160948;28;20489;-74
2020/12/21 07:19:36;;;;;;;27.48;8.77;;;4.70;99.90;;;;;;4178462;28;20502;-74
2020/12/21 07:21:37;;;;;;;26.75;9.55;;;4.70;99.90;;;;;;4177252;28;20048;-74
2020/12/21 07:23:38;;;;;;;20.27;9.50;;;4.70;99.90;;;;;;4177612;28;20033;-74
2020/12/21 07:25:52;;;;;;;22.50;10.25;;;4.80;99.90;;;;;;4170135;28;20064;-74
2020/12/21 07:27:53;;;;;;;25.30;8.90;;;4.80;99.90;;;;;;4178830;28;20094;-74
2020/12/21 07:29:54;;;;;;;20.90;11.05;;;4.70;99.90;;;;;;4179321;28;20070;-74
2020/12/21 07:31:54;;;;;;;21.67;10.63;;;4.70;99.90;;;;;;4160237;28;20183;-74
2020/12/21 07:33:55;;;;;;;26.05;9.23;;;4.70;99.90;;;;;;4166307;28;20034;-74
2020/12/21 07:35:59;;;;;;;22.95;9.60;;;4.60;99.90;;;;;;4179461;28;20602;-74
2020/12/21 07:38:13;;;;;;;24.70;10.00;;;4.60;99.90;;;;;;4163871;28;20057;-74
2020/12/21 07:40:20;;;;;;;21.15;8.65;;;4.60;99.90;;;;;;4179274;28;20021;-74
2020/12/21 07:42:22;;;;;;;22.13;9.80;;;4.60;99.90;;;;;;4160612;28;20037;-74
2020/12/21 07:44:33;;;;;;;28.10;9.52;;;4.60;99.90;;;;;;4161658;28;20037;-74
2020/12/21 07:46:54;;;;;;;30.25;9.70;;;4.50;99.90;;;;;;4174526;28;20828;-74
2020/12/21 07:48:55;;;;;;;23.17;9.82;;;4.50;99.90;;;;;;4150710;28;20093;-74
2020/12/21 07:50:56;;;;;;;36.22;11.18;;;4.50;99.90;;;;;;4175331;28;20079;-74
2020/12/21 07:52:56;;;;;;;25.83;10.23;;;4.60;99.90;;;;;;4174285;28;20025;-74
2020/12/21 07:54:59;;;;;;;22.08;10.25;;;4.60;99.90;;;;;;4151269;28;20053;-74
2020/12/21 07:57:08;;;;;;;24.98;10.18;;;4.70;99.90;;;;;;4155829;28;20033;-74
2020/12/21 07:59:27;;;;;;;27.67;10.85;;;4.70;99.90;;;;;;4174436;28;20063;-74
2020/12/21 08:01:27;;;;;;;28.58;11.75;;;4.80;99.90;;;;;;4177844;28;20037;-74
2020/12/21 08:03:30;;;;;;;25.92;12.90;;;4.80;99.90;;;;;;4152434;28;20534;-74
2020/12/21 08:05:30;;;;;;;28.00;15.60;;;4.90;99.90;;;;;;4156314;28;20041;-74
2020/12/21 08:07:33;;;;;;;23.67;11.38;;;4.90;99.90;;;;;;4153126;28;20507;-74
2020/12/21 08:09:40;;;;;;;23.50;11.68;;;4.90;99.90;;;;;;4152515;28;20085;-74
2020/12/21 08:11:40;;;;;;;25.50;13.35;;;5.00;99.90;;;;;;4141531;28;20030;-74
2020/12/21 08:13:49;;;;;;;29.30;12.75;;;5.00;99.90;;;;;;4133352;28;20540;-73
2020/12/21 08:15:49;;;;;;;30.15;13.32;;;5.00;99.90;;;;;;4149724;28;20136;-74
2020/12/21 08:17:50;;;;;;;30.60;11.35;;;5.00;99.90;;;;;;4178884;28;20033;-74
2020/12/21 08:19:55;;;;;;;32.60;12.20;;;5.00;99.90;;;;;;4160937;28;20523;-74
2020/12/21 08:22:03;;;;;;;31.23;12.85;;;5.10;99.90;;;;;;4178987;28;20044;-74
2020/12/21 08:24:05;;;;;;;25.42;12.07;;;5.10;99.90;;;;;;4178679;28;20031;-75
2020/12/21 08:26:13;;;;;;;28.70;12.98;;;5.10;99.90;;;;;;4178649;28;20495;-74
2020/12/21 08:28:26;;;;;;;29.63;12.07;;;5.10;99.90;;;;;;4178799;28;20037;-74
2020/12/21 08:30:27;;;;;;;25.70;12.27;;;5.20;99.90;;;;;;4163467;28;20053;-74
2020/12/21 08:32:31;;;;;;;26.02;12.32;;;5.20;99.90;;;;;;4178392;28;20268;-74
2020/12/21 08:34:31;;;;;;;36.38;12.10;;;5.20;99.90;;;;;;4150219;28;20516;-74
2020/12/21 08:36:34;;;;;;;32.13;12.35;;;5.30;99.90;;;;;;4171637;28;20111;-74
2020/12/21 08:38:35;;;;;;;24.67;12.30;;;5.30;99.90;;;;;;4172829;28;20055;-74
2020/12/21 08:40:36;;;;;;;32.72;12.82;;;5.40;99.90;;;;;;4181679;28;20032;-73
2020/12/21 08:42:36;;;;;;;22.77;11.70;;;5.40;99.90;;;;;;4169508;28;20033;-74
2020/12/21 08:44:37;;;;;;;28.00;12.43;;;5.50;99.90;;;;;;4181907;28;20029;-73
2020/12/21 08:46:43;;;;;;;29.00;11.80;;;5.50;99.90;;;;;;4177661;28;20025;-75
2020/12/21 08:48:44;;;;;;;30.30;12.50;;;5.60;99.90;;;;;;4176294;28;20479;-74
2020/12/21 08:50:45;;;;;;;30.70;12.95;;;5.60;99.90;;;;;;4163567;28;20025;-73
2020/12/21 08:52:49;;;;;;;23.15;12.25;;;5.70;99.90;;;;;;4181612;28;20043;-74
2020/12/21 08:54:50;;;;;;;26.88;11.07;;;5.80;99.90;;;;;;4179782;28;20029;-74
2020/12/21 08:56:53;;;;;;;28.02;11.63;;;5.80;99.90;;;;;;4160931;28;20395;-74
2020/12/21 08:58:54;;;;;;;;;;;5.90;99.90;;;;;;4180472;28;20112;-74
2020/12/21 09:00:54;;;;;;;26.70;11.55;;;5.90;99.90;;;;;;4180047;28;19909;-73
2020/12/21 09:02:55;;;;;;;19.60;11.25;;;6.00;99.90;;;;;;4141760;28;20433;-74
2020/12/21 09:04:55;;;;;;;19.58;10.32;;;6.00;99.90;;;;;;4129119;28;20033;-75
2020/12/21 09:06:56;;;;;;;23.95;11.18;;;6.10;99.90;;;;;;4136086;28;20274;-74
2020/12/21 09:08:57;;;;;;;24.70;10.88;;;6.20;99.90;;;;;;4157468;28;20104;-74
2020/12/21 09:10:58;;;;;;;20.67;11.20;;;6.20;99.90;;;;;;4178028;28;20539;-73
2020/12/21 09:12:58;;;;;;;24.17;11.45;;;6.20;99.90;;;;;;4179138;28;20017;-74
2020/12/21 09:14:59;;;;;;;31.60;13.30;;;6.30;99.90;;;;;;4146130;28;20448;-74
2020/12/21 09:16:59;;;;;;;20.00;10.13;;;6.30;99.90;;;;;;4170626;28;20025;-73
2020/12/21 09:19:00;;;;;;;25.60;10.57;;;6.40;99.90;;;;;;4179992;28;20094;-74
2020/12/21 09:21:01;;;;;;;25.50;10.68;;;6.40;99.90;;;;;;4181170;28;20036;-73
2020/12/21 09:23:02;;;;;;;23.60;9.82;;;6.50;99.90;;;;;;4163407;28;20083;-74
2020/12/21 09:25:03;;;;;;;17.70;8.90;;;6.60;99.90;;;;;;4180440;28;20427;-74
2020/12/21 09:27:04;;;;;;;23.80;9.73;;;6.60;99.90;;;;;;4160116;28;20076;-74
2020/12/21 09:29:05;;;;;;;30.13;10.52;;;6.60;99.90;;;;;;4172820;28;20022;-74
2020/12/21 09:31:05;;;;;;;20.95;9.90;;;6.60;99.90;;;;;;4163634;28;20144;-74
2020/12/21 09:33:06;;;;;;;16.40;9.88;;;6.70;99.90;;;;;;4163327;28;20025;-74
2020/12/21 09:35:06;;;;;;;24.30;10.60;;;6.70;99.90;;;;;;4180895;28;20376;-74
2020/12/21 09:37:07;;;;;;;17.52;10.27;;;6.70;99.90;;;;;;4181408;28;20087;-74
2020/12/21 09:39:08;;;;;;;21.58;10.38;;;6.70;99.90;;;;;;4180781;28;20037;-74
2020/12/21 09:41:09;;;;;;;22.17;11.85;;;6.80;99.90;;;;;;4163110;28;20041;-75
2020/12/21 09:43:10;;;;;;;19.95;9.40;;;6.80;99.90;;;;;;4180866;28;20031;-75
2020/12/21 09:45:10;;;;;;;19.45;9.00;;;6.80;99.90;;;;;;4180835;28;20067;-75
2020/12/21 09:47:11;;;;;;;21.80;10.13;;;6.80;99.90;;;;;;4180010;28;20041;-74
2020/12/21 09:49:12;;;;;;;26.80;10.30;;;6.90;99.90;;;;;;4180164;28;20025;-75
2020/12/21 09:51:12;;;;;;;19.45;10.07;;;6.90;99.90;;;;;;4179348;28;20484;-75
2020/12/21 09:53:13;;;;;;;19.25;8.48;;;6.90;99.90;;;;;;4160345;28;20029;-75
2020/12/21 09:55:15;;;;;;;15.88;8.45;;;7.00;99.90;;;;;;4180881;28;20549;-75
2020/12/21 09:57:15;;;;;;;22.27;9.65;;;7.00;99.90;;;;;;4180765;28;20387;-75
2020/12/21 09:59:16;;;;;;;16.90;8.57;;;7.10;99.90;;;;;;4180970;28;20033;-74
2020/12/21 10:01:17;;;;;;;23.13;9.15;;;7.10;99.90;;;;;;4180700;28;20033;-75
2020/12/21 10:03:17;;;;;;;15.63;9.38;;;7.10;99.90;;;;;;4180707;28;20115;-75
2020/12/21 10:05:18;;;;;;;21.38;8.05;;;7.10;99.90;;;;;;4162884;28;20473;-75
2020/12/21 10:07:19;;;;;;;18.52;8.85;;;7.10;99.90;;;;;;4176126;28;20061;-75
2020/12/21 10:09:19;;;;;;;25.80;8.82;;;7.10;99.90;;;;;;4155414;28;20524;-74
2020/12/21 10:11:20;;;;;;;22.98;9.68;;;7.10;99.90;;;;;;4180573;28;20025;-74
2020/12/21 10:13:21;;;;;;;16.95;8.68;;;7.10;99.90;;;;;;4178306;28;20138;-75
2020/12/21 10:15:21;;;;;;;22.10;9.63;;;7.10;99.90;;;;;;4161913;28;20052;-74
2020/12/21 10:17:22;;;;;;;17.63;8.73;;;7.10;99.90;;;;;;4162050;28;20065;-74
2020/12/21 10:19:23;;;;;;;23.67;9.38;;;7.10;99.90;;;;;;4179835;28;20375;-73
2020/12/21 10:21:23;;;;;;;19.48;8.98;;;7.10;99.90;;;;;;4178878;28;20112;-73
2020/12/21 10:23:24;;;;;;;20.00;8.13;;;7.10;99.90;;;;;;4157753;28;20036;-73
2020/12/21 10:25:25;;;;;;;16.05;9.07;;;7.10;99.90;;;;;;4178330;28;20404;-74
2020/12/21 10:27:27;;;;;;;16.05;10.35;;;7.10;99.90;;;;;;4161338;28;20045;-74
2020/12/21 10:29:28;;;;;;;18.90;9.83;;;7.10;99.90;;;;;;4160881;28;20037;-73